sensor_id;sensor_type;location;lat;lon;timestamp;noise_LAeq;noise_LA_min;noise_LA_max;noise_LA01;noise_LA95
42701;Laerm;28316;49.504;8.526;2023-03-23T00:02:29;41.58;39.34;44.35;;
42701;Laerm;28316;49.504;8.526;2023-03-23T00:04:55;41.62;39.92;43.86;;
42701;Laerm;28316;49.504;8.526;2023-03-23T00:07:22;41.66;40.03;45.60;;
42701;Laerm;28316;49.504;8.526;2023-03-23T00:09:54;41.63;39.92;43.94;;
42701;Laerm;28316;49.504;8.526;2023-03-23T00:12:26;41.73;40.03;46.20;;
42701;Laerm;28316;49.504;8.526;2023-03-23T00:15:04;41.72;40.03;43.81;;
42701;Laerm;28316;49.504;8.526;2023-03-23T00:17:31;41.75;39.58;42.98;;
42701;Laerm;28316;49.504;8.526;2023-03-23T00:20:01;41.78;40.23;43.04;;
42701;Laerm;28316;49.504;8.526;2023-03-23T00:22:29;41.80;40.13;43.24;;
42701;Laerm;28316;49.504;8.526;2023-03-23T00:24:55;41.84;40.33;46.15;;
42701;Laerm;28316;49.504;8.526;2023-03-23T00:27:22;41.82;40.23;43.19;;
42701;Laerm;28316;49.504;8.526;2023-03-23T00:29:52;41.81;40.33;43.19;;
42701;Laerm;28316;49.504;8.526;2023-03-23T00:32:20;41.79;40.13;43.24;;
42701;Laerm;28316;49.504;8.526;2023-03-23T00:34:46;41.80;40.03;44.15;;
42701;Laerm;28316;49.504;8.526;2023-03-23T00:37:14;41.82;40.13;47.81;;
42701;Laerm;28316;49.504;8.526;2023-03-23T00:39:44;41.71;40.03;43.63;;
42701;Laerm;28316;49.504;8.526;2023-03-23T00:42:15;41.66;39.92;45.20;;
42701;Laerm;28316;49.504;8.526;2023-03-23T00:44:42;41.71;39.08;55.13;;
42701;Laerm;28316;49.504;8.526;2023-03-23T00:47:10;41.43;39.46;46.13;;
42701;Laerm;28316;49.504;8.526;2023-03-23T00:49:37;41.38;39.46;42.76;;
42701;Laerm;28316;49.504;8.526;2023-03-23T00:52:05;41.36;39.46;43.34;;
42701;Laerm;28316;49.504;8.526;2023-03-23T00:54:32;41.34;39.34;43.24;;
42701;Laerm;28316;49.504;8.526;2023-03-23T00:56:59;41.50;39.34;49.80;;
42701;Laerm;28316;49.504;8.526;2023-03-23T00:59:25;41.33;39.58;44.80;;
42701;Laerm;28316;49.504;8.526;2023-03-23T01:01:51;41.40;39.81;43.09;;
42701;Laerm;28316;49.504;8.526;2023-03-23T01:04:17;41.54;39.92;42.76;;
42701;Laerm;28316;49.504;8.526;2023-03-23T01:06:44;41.65;39.81;45.36;;
42701;Laerm;28316;49.504;8.526;2023-03-23T01:09:15;41.66;39.81;42.93;;
42701;Laerm;28316;49.504;8.526;2023-03-23T01:11:43;41.79;40.13;42.93;;
42701;Laerm;28316;49.504;8.526;2023-03-23T01:14:10;41.89;40.43;43.14;;
42701;Laerm;28316;49.504;8.526;2023-03-23T01:16:36;41.95;40.53;43.24;;
42701;Laerm;28316;49.504;8.526;2023-03-23T01:19:02;41.97;40.53;43.24;;
42701;Laerm;28316;49.504;8.526;2023-03-23T01:21:29;41.96;40.62;43.19;;
42701;Laerm;28316;49.504;8.526;2023-03-23T01:23:54;41.99;40.62;43.09;;
42701;Laerm;28316;49.504;8.526;2023-03-23T01:26:24;41.98;40.53;43.34;;
42701;Laerm;28316;49.504;8.526;2023-03-23T01:28:50;42.02;40.62;44.07;;
42701;Laerm;28316;49.504;8.526;2023-03-23T01:31:20;42.01;40.33;43.29;;
42701;Laerm;28316;49.504;8.526;2023-03-23T01:33:47;42.01;40.71;43.19;;
42701;Laerm;28316;49.504;8.526;2023-03-23T01:36:18;42.02;40.43;43.34;;
42701;Laerm;28316;49.504;8.526;2023-03-23T01:38:46;42.02;40.71;43.19;;
42701;Laerm;28316;49.504;8.526;2023-03-23T01:41:13;42.03;40.53;43.24;;
42701;Laerm;28316;49.504;8.526;2023-03-23T01:44:05;42.02;40.13;44.03;;
42701;Laerm;28316;49.504;8.526;2023-03-23T01:46:33;42.00;40.23;44.08;;
42701;Laerm;28316;49.504;8.526;2023-03-23T01:49:12;41.98;40.43;43.86;;
42701;Laerm;28316;49.504;8.526;2023-03-23T01:51:51;41.94;40.53;43.19;;
42701;Laerm;28316;49.504;8.526;2023-03-23T01:54:20;41.91;40.23;45.20;;
42701;Laerm;28316;49.504;8.526;2023-03-23T01:56:52;41.88;39.81;45.66;;
42701;Laerm;28316;49.504;8.526;2023-03-23T01:59:21;41.88;39.92;49.57;;
42701;Laerm;28316;49.504;8.526;2023-03-23T02:01:48;41.78;39.92;47.20;;
42701;Laerm;28316;49.504;8.526;2023-03-23T02:04:16;42.02;39.81;58.82;;
42701;Laerm;28316;49.504;8.526;2023-03-23T02:06:43;41.70;40.03;43.68;;
42701;Laerm;28316;49.504;8.526;2023-03-23T02:09:11;41.71;40.13;42.93;;
42701;Laerm;28316;49.504;8.526;2023-03-23T02:11:39;41.77;40.23;46.97;;
42701;Laerm;28316;49.504;8.526;2023-03-23T02:14:05;41.79;40.23;43.24;;
42701;Laerm;28316;49.504;8.526;2023-03-23T02:24:46;41.83;40.03;43.64;;
42701;Laerm;28316;49.504;8.526;2023-03-23T02:30:49;41.85;39.81;47.95;;
42701;Laerm;28316;49.504;8.526;2023-03-23T02:36:40;41.87;40.23;43.54;;
42701;Laerm;28316;49.504;8.526;2023-03-23T02:42:08;41.90;40.33;43.81;;
42701;Laerm;28316;49.504;8.526;2023-03-23T02:44:38;41.92;40.43;44.65;;
42701;Laerm;28316;49.504;8.526;2023-03-23T02:47:13;41.94;40.23;45.04;;
42701;Laerm;28316;49.504;8.526;2023-03-23T02:49:41;41.94;40.33;45.57;;
42701;Laerm;28316;49.504;8.526;2023-03-23T02:52:17;41.96;40.62;43.09;;
42701;Laerm;28316;49.504;8.526;2023-03-23T02:54:47;41.97;40.53;43.19;;
42701;Laerm;28316;49.504;8.526;2023-03-23T02:57:13;41.98;40.62;43.19;;
42701;Laerm;28316;49.504;8.526;2023-03-23T02:59:40;42.01;40.62;43.14;;
42701;Laerm;28316;49.504;8.526;2023-03-23T03:02:17;42.01;40.62;43.14;;
42701;Laerm;28316;49.504;8.526;2023-03-23T03:05:10;41.98;40.63;43.49;;
42701;Laerm;28316;49.504;8.526;2023-03-23T03:08:18;41.98;40.53;43.19;;
42701;Laerm;28316;49.504;8.526;2023-03-23T03:11:03;42.00;40.53;43.19;;
42701;Laerm;28316;49.504;8.526;2023-03-23T03:13:53;41.99;40.62;43.19;;
42701;Laerm;28316;49.504;8.526;2023-03-23T03:16:38;41.99;40.53;43.34;;
42701;Laerm;28316;49.504;8.526;2023-03-23T03:21:48;42.02;40.43;43.34;;
42701;Laerm;28316;49.504;8.526;2023-03-23T03:24:18;42.03;40.53;43.19;;
42701;Laerm;28316;49.504;8.526;2023-03-23T03:26:48;42.03;40.43;43.29;;
42701;Laerm;28316;49.504;8.526;2023-03-23T03:29:23;42.02;40.71;43.14;;
42701;Laerm;28316;49.504;8.526;2023-03-23T03:31:52;42.01;40.33;43.29;;
42701;Laerm;28316;49.504;8.526;2023-03-23T03:34:21;42.00;40.43;43.14;;
42701;Laerm;28316;49.504;8.526;2023-03-23T03:36:48;42.00;40.62;43.34;;
42701;Laerm;28316;49.504;8.526;2023-03-23T03:39:16;41.98;40.53;43.14;;
42701;Laerm;28316;49.504;8.526;2023-03-23T03:41:43;41.99;40.53;43.63;;
42701;Laerm;28316;49.504;8.526;2023-03-23T03:44:09;41.97;39.81;43.58;;
42701;Laerm;28316;49.504;8.526;2023-03-23T03:46:36;41.98;40.23;45.86;;
42701;Laerm;28316;49.504;8.526;2023-03-23T03:49:05;41.92;40.43;43.54;;
42701;Laerm;28316;49.504;8.526;2023-03-23T03:51:33;41.93;40.43;45.89;;
42701;Laerm;28316;49.504;8.526;2023-03-23T03:54:00;41.86;40.13;46.18;;
42701;Laerm;28316;49.504;8.526;2023-03-23T03:56:26;41.89;40.23;49.39;;
42701;Laerm;28316;49.504;8.526;2023-03-23T03:58:52;41.82;40.13;44.15;;
42701;Laerm;28316;49.504;8.526;2023-03-23T04:01:20;41.82;40.23;47.61;;
42701;Laerm;28316;49.504;8.526;2023-03-23T04:03:50;41.87;40.33;48.78;;
42701;Laerm;28316;49.504;8.526;2023-03-23T04:06:17;41.73;40.13;42.93;;
42701;Laerm;28316;49.504;8.526;2023-03-23T04:08:43;41.73;39.92;43.04;;
42701;Laerm;28316;49.504;8.526;2023-03-23T04:11:12;41.73;39.81;43.29;;
42701;Laerm;28316;49.504;8.526;2023-03-23T04:13:39;42.02;40.23;52.55;;
42701;Laerm;28316;49.504;8.526;2023-03-23T04:16:06;41.76;40.03;48.66;;
42701;Laerm;28316;49.504;8.526;2023-03-23T04:18:34;41.70;39.57;47.06;;
42701;Laerm;28316;49.504;8.526;2023-03-23T04:21:02;41.77;40.13;47.96;;
42701;Laerm;28316;49.504;8.526;2023-03-23T04:23:30;41.68;39.92;43.77;;
42701;Laerm;28316;49.504;8.526;2023-03-23T04:25:59;41.79;40.33;43.04;;
42701;Laerm;28316;49.504;8.526;2023-03-23T04:28:25;41.95;40.43;47.10;;
42701;Laerm;28316;49.504;8.526;2023-03-23T04:30:52;42.02;40.43;43.34;;
42701;Laerm;28316;49.504;8.526;2023-03-23T04:33:25;42.06;40.71;43.77;;
42701;Laerm;28316;49.504;8.526;2023-03-23T04:35:52;42.12;40.80;51.48;;
42701;Laerm;28316;49.504;8.526;2023-03-23T04:38:21;42.08;40.62;44.65;;
42701;Laerm;28316;49.504;8.526;2023-03-23T04:40:52;42.07;40.53;44.31;;
42701;Laerm;28316;49.504;8.526;2023-03-23T04:43:22;41.28;37.52;42.98;;
42701;Laerm;28316;49.504;8.526;2023-03-23T04:45:58;41.39;39.21;42.82;;
42701;Laerm;28316;49.504;8.526;2023-03-23T04:48:28;41.46;39.81;43.44;;
42701;Laerm;28316;49.504;8.526;2023-03-23T04:50:55;41.44;38.81;42.82;;
42701;Laerm;28316;49.504;8.526;2023-03-23T04:53:21;40.75;38.52;42.41;;
42701;Laerm;28316;49.504;8.526;2023-03-23T04:55:48;41.10;39.21;42.41;;
42701;Laerm;28316;49.504;8.526;2023-03-23T04:58:15;44.20;35.66;78.54;;
42701;Laerm;28316;49.504;8.526;2023-03-23T05:00:42;39.95;36.69;41.61;;
42701;Laerm;28316;49.504;8.526;2023-03-23T05:03:19;40.62;38.95;42.16;;
42701;Laerm;28316;49.504;8.526;2023-03-23T05:05:45;40.87;39.46;42.35;;
42701;Laerm;28316;49.504;8.526;2023-03-23T05:08:23;40.87;38.81;42.03;;
42701;Laerm;28316;49.504;8.526;2023-03-23T05:11:00;41.06;39.58;42.35;;
42701;Laerm;28316;49.504;8.526;2023-03-23T05:13:29;41.27;39.81;42.41;;
42701;Laerm;28316;49.504;8.526;2023-03-23T05:15:55;41.43;40.08;42.71;;
42701;Laerm;28316;49.504;8.526;2023-03-23T05:18:21;41.55;40.23;42.76;;
42701;Laerm;28316;49.504;8.526;2023-03-23T05:20:47;41.55;40.23;42.82;;
42701;Laerm;28316;49.504;8.526;2023-03-23T05:23:14;41.61;40.23;42.76;;
42701;Laerm;28316;49.504;8.526;2023-03-23T05:25:40;41.70;40.23;43.19;;
42701;Laerm;28316;49.504;8.526;2023-03-23T05:28:10;41.76;40.43;42.93;;
42701;Laerm;28316;49.504;8.526;2023-03-23T05:30:37;41.82;40.43;43.04;;
42701;Laerm;28316;49.504;8.526;2023-03-23T05:33:04;41.80;40.53;42.88;;
42701;Laerm;28316;49.504;8.526;2023-03-23T05:35:30;41.81;40.23;43.04;;
42701;Laerm;28316;49.504;8.526;2023-03-23T05:37:56;41.87;40.53;42.98;;
42701;Laerm;28316;49.504;8.526;2023-03-23T05:40:23;41.84;40.53;42.82;;
42701;Laerm;28316;49.504;8.526;2023-03-23T05:42:52;41.81;40.43;42.93;;
42701;Laerm;28316;49.504;8.526;2023-03-23T05:45:18;41.88;40.53;43.19;;
42701;Laerm;28316;49.504;8.526;2023-03-23T05:47:44;41.94;40.53;43.81;;
42701;Laerm;28316;49.504;8.526;2023-03-23T05:50:11;41.97;40.71;43.19;;
42701;Laerm;28316;49.504;8.526;2023-03-23T05:52:38;41.98;40.62;43.09;;
42701;Laerm;28316;49.504;8.526;2023-03-23T05:55:06;41.99;40.62;43.24;;
42701;Laerm;28316;49.504;8.526;2023-03-23T05:57:33;41.92;40.43;42.98;;
42701;Laerm;28316;49.504;8.526;2023-03-23T05:59:59;41.91;40.53;42.98;;
42701;Laerm;28316;49.504;8.526;2023-03-23T06:02:25;41.88;40.43;42.98;;
42701;Laerm;28316;49.504;8.526;2023-03-23T06:04:54;41.87;40.33;42.93;;
42701;Laerm;28316;49.504;8.526;2023-03-23T06:07:25;41.88;40.62;43.24;;
42701;Laerm;28316;49.504;8.526;2023-03-23T06:09:52;41.82;40.33;42.93;;
42701;Laerm;28316;49.504;8.526;2023-03-23T06:12:18;41.91;40.62;43.04;;
42701;Laerm;28316;49.504;8.526;2023-03-23T06:14:47;41.90;40.43;43.04;;
42701;Laerm;28316;49.504;8.526;2023-03-23T06:17:14;41.95;40.62;43.19;;
42701;Laerm;28316;49.504;8.526;2023-03-23T06:19:41;41.95;40.71;43.19;;
42701;Laerm;28316;49.504;8.526;2023-03-23T06:22:07;41.95;40.43;43.04;;
42701;Laerm;28316;49.504;8.526;2023-03-23T06:24:33;41.96;40.71;43.19;;
42701;Laerm;28316;49.504;8.526;2023-03-23T06:26:59;41.93;40.53;43.19;;
42701;Laerm;28316;49.504;8.526;2023-03-23T06:29:25;41.92;40.71;43.19;;
42701;Laerm;28316;49.504;8.526;2023-03-23T06:31:58;41.95;40.62;42.93;;
42701;Laerm;28316;49.504;8.526;2023-03-23T06:34:26;41.98;40.71;43.04;;
42701;Laerm;28316;49.504;8.526;2023-03-23T06:36:51;41.99;40.80;43.09;;
42701;Laerm;28316;49.504;8.526;2023-03-23T06:39:18;41.98;40.62;42.98;;
42701;Laerm;28316;49.504;8.526;2023-03-23T06:41:43;41.95;40.71;43.24;;
42701;Laerm;28316;49.504;8.526;2023-03-23T06:44:09;41.97;40.62;43.14;;
42701;Laerm;28316;49.504;8.526;2023-03-23T06:46:40;41.97;40.71;43.09;;
42701;Laerm;28316;49.504;8.526;2023-03-23T06:49:07;41.93;40.53;43.19;;
42701;Laerm;28316;49.504;8.526;2023-03-23T06:51:33;41.94;40.71;43.09;;
42701;Laerm;28316;49.504;8.526;2023-03-23T06:53:58;41.93;40.43;43.04;;
42701;Laerm;28316;49.504;8.526;2023-03-23T06:56:25;41.95;40.43;43.14;;
42701;Laerm;28316;49.504;8.526;2023-03-23T06:58:51;41.92;40.62;42.98;;
42701;Laerm;28316;49.504;8.526;2023-03-23T07:01:17;41.87;40.43;43.14;;
42701;Laerm;28316;49.504;8.526;2023-03-23T07:03:43;41.84;40.63;42.82;;
42701;Laerm;28316;49.504;8.526;2023-03-23T07:06:10;41.86;40.62;43.09;;
42701;Laerm;28316;49.504;8.526;2023-03-23T07:08:36;41.82;40.53;42.93;;
42701;Laerm;28316;49.504;8.526;2023-03-23T07:11:03;41.76;40.33;42.93;;
42701;Laerm;28316;49.504;8.526;2023-03-23T07:13:29;41.76;40.33;42.98;;
42701;Laerm;28316;49.504;8.526;2023-03-23T07:15:55;41.83;40.62;42.88;;
42701;Laerm;28316;49.504;8.526;2023-03-23T07:18:21;41.73;40.33;43.14;;
42701;Laerm;28316;49.504;8.526;2023-03-23T07:20:51;41.84;40.62;44.90;;
42701;Laerm;28316;49.504;8.526;2023-03-23T07:23:18;41.75;40.53;42.88;;
42701;Laerm;28316;49.504;8.526;2023-03-23T07:25:45;41.76;40.53;44.43;;
42701;Laerm;28316;49.504;8.526;2023-03-23T07:28:12;41.68;40.43;42.93;;
42701;Laerm;28316;49.504;8.526;2023-03-23T07:30:38;41.73;40.53;42.93;;
42701;Laerm;28316;49.504;8.526;2023-03-23T07:33:06;41.70;40.43;42.76;;
42701;Laerm;28316;49.504;8.526;2023-03-23T07:35:32;41.79;40.43;49.03;;
42701;Laerm;28316;49.504;8.526;2023-03-23T07:37:58;41.74;40.23;49.78;;
42701;Laerm;28316;49.504;8.526;2023-03-23T07:40:26;41.59;40.03;44.73;;
42701;Laerm;28316;49.504;8.526;2023-03-23T07:42:55;41.63;40.13;48.58;;
42701;Laerm;28316;49.504;8.526;2023-03-23T07:45:21;41.50;39.81;48.34;;
42701;Laerm;28316;49.504;8.526;2023-03-23T07:47:47;41.49;40.03;49.65;;
42701;Laerm;28316;49.504;8.526;2023-03-23T07:50:13;41.59;40.03;53.18;;
42701;Laerm;28316;49.504;8.526;2023-03-23T07:52:40;41.26;39.81;47.85;;
42701;Laerm;28316;49.504;8.526;2023-03-23T07:55:09;41.36;39.70;49.91;;
42701;Laerm;28316;49.504;8.526;2023-03-23T07:57:47;41.09;39.46;45.33;;
42701;Laerm;28316;49.504;8.526;2023-03-23T08:00:18;41.57;39.08;55.55;;
42701;Laerm;28316;49.504;8.526;2023-03-23T08:02:53;41.12;39.70;46.45;;
42701;Laerm;28316;49.504;8.526;2023-03-23T08:05:21;41.26;39.46;48.63;;
42701;Laerm;28316;49.504;8.526;2023-03-23T08:07:48;41.05;39.58;44.83;;
42701;Laerm;28316;49.504;8.526;2023-03-23T08:10:16;41.00;39.58;42.53;;
42701;Laerm;28316;49.504;8.526;2023-03-23T08:12:44;40.92;39.34;43.34;;
42701;Laerm;28316;49.504;8.526;2023-03-23T08:15:12;41.00;38.95;47.61;;
42701;Laerm;28316;49.504;8.526;2023-03-23T08:17:40;40.98;39.08;44.19;;
42701;Laerm;28316;49.504;8.526;2023-03-23T08:20:08;40.93;39.34;44.07;;
42701;Laerm;28316;49.504;8.526;2023-03-23T08:22:39;40.88;39.21;42.53;;
42701;Laerm;28316;49.504;8.526;2023-03-23T08:25:08;40.84;38.67;42.47;;
42701;Laerm;28316;49.504;8.526;2023-03-23T08:27:36;40.92;39.08;43.29;;
42701;Laerm;28316;49.504;8.526;2023-03-23T08:30:04;40.86;39.34;42.71;;
42701;Laerm;28316;49.504;8.526;2023-03-23T08:32:32;40.89;39.46;42.47;;
42701;Laerm;28316;49.504;8.526;2023-03-23T08:34:58;40.91;39.21;43.09;;
42701;Laerm;28316;49.504;8.526;2023-03-23T08:37:24;40.91;39.21;44.73;;
42701;Laerm;28316;49.504;8.526;2023-03-23T08:39:53;40.88;39.46;44.31;;
42701;Laerm;28316;49.504;8.526;2023-03-23T08:42:19;40.97;39.46;48.20;;
42701;Laerm;28316;49.504;8.526;2023-03-23T08:44:45;40.85;39.34;43.34;;
42701;Laerm;28316;49.504;8.526;2023-03-23T08:47:11;40.80;39.34;43.81;;
42701;Laerm;28316;49.504;8.526;2023-03-23T08:49:36;40.79;39.08;43.39;;
42701;Laerm;28316;49.504;8.526;2023-03-23T08:52:20;40.34;38.37;42.65;;
42701;Laerm;28316;49.504;8.526;2023-03-23T08:54:46;40.02;36.45;43.09;;
42701;Laerm;28316;49.504;8.526;2023-03-23T08:57:13;38.75;36.20;40.80;;
42701;Laerm;28316;49.504;8.526;2023-03-23T08:59:40;38.52;34.69;40.80;;
42701;Laerm;28316;49.504;8.526;2023-03-23T09:02:10;38.97;36.20;40.98;;
42701;Laerm;28316;49.504;8.526;2023-03-23T09:04:40;39.54;37.32;41.30;;
42701;Laerm;28316;49.504;8.526;2023-03-23T09:07:12;39.64;37.88;41.53;;
42701;Laerm;28316;49.504;8.526;2023-03-23T09:09:40;40.09;37.88;41.68;;
42701;Laerm;28316;49.504;8.526;2023-03-23T09:12:08;40.37;38.52;41.82;;
42701;Laerm;28316;49.504;8.526;2023-03-23T09:14:35;40.56;38.81;42.59;;
42701;Laerm;28316;49.504;8.526;2023-03-23T09:17:01;40.67;38.81;42.19;;
42701;Laerm;28316;49.504;8.526;2023-03-23T09:19:32;40.68;38.95;41.89;;
42701;Laerm;28316;49.504;8.526;2023-03-23T09:21:59;40.74;39.08;42.22;;
42701;Laerm;28316;49.504;8.526;2023-03-23T09:24:26;41.02;39.57;42.65;;
42701;Laerm;28316;49.504;8.526;2023-03-23T09:26:52;41.15;39.70;43.28;;
42701;Laerm;28316;49.504;8.526;2023-03-23T09:29:18;41.33;39.92;44.15;;
42701;Laerm;28316;49.504;8.526;2023-03-23T09:31:44;41.74;40.23;49.44;;
42701;Laerm;28316;49.504;8.526;2023-03-23T09:34:13;41.80;40.62;45.75;;
42701;Laerm;28316;49.504;8.526;2023-03-23T09:36:43;41.81;40.53;47.83;;
42701;Laerm;28316;49.504;8.526;2023-03-23T09:39:10;42.12;40.71;47.36;;
42701;Laerm;28316;49.504;8.526;2023-03-23T09:50:52;41.84;40.23;53.57;;
42701;Laerm;28316;49.504;8.526;2023-03-23T09:53:39;41.39;39.81;44.62;;
42701;Laerm;28316;49.504;8.526;2023-03-23T09:56:15;41.11;39.70;43.24;;
42701;Laerm;28316;49.504;8.526;2023-03-23T09:59:00;41.18;39.70;45.30;;
42701;Laerm;28316;49.504;8.526;2023-03-23T10:01:28;41.16;39.58;43.44;;
42701;Laerm;28316;49.504;8.526;2023-03-23T10:04:49;41.24;39.70;44.51;;
42701;Laerm;28316;49.504;8.526;2023-03-23T10:07:20;41.28;39.70;44.58;;
42701;Laerm;28316;49.504;8.526;2023-03-23T10:09:54;41.17;39.46;47.36;;
42701;Laerm;28316;49.504;8.526;2023-03-23T10:12:42;41.08;39.46;42.29;;
42701;Laerm;28316;49.504;8.526;2023-03-23T10:15:14;41.17;39.81;46.02;;
42701;Laerm;28316;49.504;8.526;2023-03-23T10:20:53;41.31;39.70;51.54;;
42701;Laerm;28316;49.504;8.526;2023-03-23T10:26:33;41.22;39.81;43.72;;
42701;Laerm;28316;49.504;8.526;2023-03-23T10:29:36;41.10;39.46;42.41;;
42701;Laerm;28316;49.504;8.526;2023-03-23T10:35:24;41.47;40.03;43.58;;
42701;Laerm;28316;49.504;8.526;2023-03-23T10:38:03;41.73;40.43;44.08;;
42701;Laerm;28316;49.504;8.526;2023-03-23T10:40:30;41.86;40.43;46.32;;
42701;Laerm;28316;49.504;8.526;2023-03-23T10:42:59;41.81;40.53;43.29;;
42701;Laerm;28316;49.504;8.526;2023-03-23T10:45:29;41.97;40.53;45.14;;
42701;Laerm;28316;49.504;8.526;2023-03-23T10:48:30;42.06;40.62;43.24;;
42701;Laerm;28316;49.504;8.526;2023-03-23T10:51:00;42.18;40.80;44.58;;
42701;Laerm;28316;49.504;8.526;2023-03-23T10:53:44;42.29;40.89;51.39;;
42701;Laerm;28316;49.504;8.526;2023-03-23T10:59:20;42.05;40.71;45.30;;
42701;Laerm;28316;49.504;8.526;2023-03-23T11:01:52;41.93;40.53;48.20;;
42701;Laerm;28316;49.504;8.526;2023-03-23T11:04:19;41.72;40.43;45.54;;
42701;Laerm;28316;49.504;8.526;2023-03-23T11:06:53;41.36;39.92;43.94;;
42701;Laerm;28316;49.504;8.526;2023-03-23T11:09:39;41.25;39.70;42.35;;
42701;Laerm;28316;49.504;8.526;2023-03-23T11:12:18;41.21;39.70;43.39;;
42701;Laerm;28316;49.504;8.526;2023-03-23T11:14:45;41.14;39.70;42.71;;
42701;Laerm;28316;49.504;8.526;2023-03-23T11:17:40;41.13;39.68;43.90;;
42701;Laerm;28316;49.504;8.526;2023-03-23T11:20:12;41.35;39.81;54.08;;
42701;Laerm;28316;49.504;8.526;2023-03-23T11:22:38;41.28;39.46;47.46;;
42701;Laerm;28316;49.504;8.526;2023-03-23T11:25:05;41.19;39.58;47.08;;
42701;Laerm;28316;49.504;8.526;2023-03-23T11:27:32;41.03;39.34;44.80;;
42701;Laerm;28316;49.504;8.526;2023-03-23T11:30:26;40.91;39.21;42.65;;
42701;Laerm;28316;49.504;8.526;2023-03-23T11:32:54;40.99;39.46;44.58;;
42701;Laerm;28316;49.504;8.526;2023-03-23T11:35:26;40.91;39.21;42.35;;
42701;Laerm;28316;49.504;8.526;2023-03-23T11:37:58;40.99;39.34;44.54;;
42701;Laerm;28316;49.504;8.526;2023-03-23T11:40:31;40.93;39.34;42.16;;
42701;Laerm;28316;49.504;8.526;2023-03-23T11:43:23;41.01;39.58;43.99;;
42701;Laerm;28316;49.504;8.526;2023-03-23T11:48:59;41.22;39.92;44.73;;
42701;Laerm;28316;49.504;8.526;2023-03-23T11:51:54;41.13;39.70;42.74;;
42701;Laerm;28316;49.504;8.526;2023-03-23T11:54:36;41.05;39.34;48.71;;
42701;Laerm;28316;49.504;8.526;2023-03-23T11:57:10;40.83;39.21;44.23;;
42701;Laerm;28316;49.504;8.526;2023-03-23T11:59:41;40.76;39.21;47.59;;
42701;Laerm;28316;49.504;8.526;2023-03-23T12:12:12;41.42;40.03;47.08;;
42701;Laerm;28316;49.504;8.526;2023-03-23T12:18:02;41.39;40.03;43.34;;
42701;Laerm;28316;49.504;8.526;2023-03-23T12:26:28;41.51;40.23;45.94;;
42701;Laerm;28316;49.504;8.526;2023-03-23T12:29:31;41.43;39.92;42.47;;
42701;Laerm;28316;49.504;8.526;2023-03-23T12:44:12;41.54;40.23;42.65;;
42701;Laerm;28316;49.504;8.526;2023-03-23T12:47:16;41.49;40.03;43.29;;
42701;Laerm;28316;49.504;8.526;2023-03-23T12:49:53;41.49;39.81;44.43;;
42701;Laerm;28316;49.504;8.526;2023-03-23T12:52:30;41.50;40.03;46.30;;
42701;Laerm;28316;49.504;8.526;2023-03-23T12:55:22;41.45;39.92;42.76;;
42701;Laerm;28316;49.504;8.526;2023-03-23T12:58:09;41.70;40.03;45.27;;
42701;Laerm;28316;49.504;8.526;2023-03-23T13:01:18;42.10;40.71;45.89;;
42701;Laerm;28316;49.504;8.526;2023-03-23T13:04:09;42.11;40.89;45.30;;
42701;Laerm;28316;49.504;8.526;2023-03-23T13:06:39;42.05;40.62;44.39;;
42701;Laerm;28316;49.504;8.526;2023-03-23T13:09:32;41.84;40.36;44.47;;
42701;Laerm;28316;49.504;8.526;2023-03-23T13:12:03;41.56;40.03;43.39;;
42701;Laerm;28316;49.504;8.526;2023-03-23T13:17:48;41.26;39.58;43.86;;
42701;Laerm;28316;49.504;8.526;2023-03-23T13:23:15;41.34;39.92;45.54;;
42701;Laerm;28316;49.504;8.526;2023-03-23T13:26:14;41.20;39.81;42.41;;
42701;Laerm;28316;49.504;8.526;2023-03-23T13:31:38;41.11;39.70;42.29;;
42701;Laerm;28316;49.504;8.526;2023-03-23T13:34:26;41.12;39.58;42.47;;
42701;Laerm;28316;49.504;8.526;2023-03-23T13:37:03;41.08;39.70;42.41;;
42701;Laerm;28316;49.504;8.526;2023-03-23T13:39:58;41.28;39.81;42.59;;
42701;Laerm;28316;49.504;8.526;2023-03-23T13:42:30;41.28;39.92;42.47;;
42701;Laerm;28316;49.504;8.526;2023-03-23T13:48:24;41.68;40.23;46.05;;
42701;Laerm;28316;49.504;8.526;2023-03-23T13:50:57;41.62;40.33;44.19;;
42701;Laerm;28316;49.504;8.526;2023-03-23T13:53:46;41.71;40.33;52.06;;
42701;Laerm;28316;49.504;8.526;2023-03-23T13:56:47;41.70;40.23;43.44;;
42701;Laerm;28316;49.504;8.526;2023-03-23T13:59:35;41.68;40.43;42.88;;
42701;Laerm;28316;49.504;8.526;2023-03-23T14:02:38;41.73;40.36;45.66;;
42701;Laerm;28316;49.504;8.526;2023-03-23T14:10:41;41.81;40.43;43.77;;
42701;Laerm;28316;49.504;8.526;2023-03-23T14:16:04;41.84;40.43;43.68;;
42701;Laerm;28316;49.504;8.526;2023-03-23T14:18:39;41.96;40.53;47.73;;
42701;Laerm;28316;49.504;8.526;2023-03-23T14:21:16;41.93;40.62;43.68;;
42701;Laerm;28316;49.504;8.526;2023-03-23T14:23:42;42.21;40.53;56.12;;
42701;Laerm;28316;49.504;8.526;2023-03-23T14:26:17;42.02;40.71;47.67;;
42701;Laerm;28316;49.504;8.526;2023-03-23T14:28:49;42.04;40.62;45.80;;
42701;Laerm;28316;49.504;8.526;2023-03-23T14:31:22;42.07;40.80;43.99;;
42701;Laerm;28316;49.504;8.526;2023-03-23T14:33:49;42.41;40.89;59.14;;
42701;Laerm;28316;49.504;8.526;2023-03-23T14:36:25;42.09;40.80;48.96;;
42701;Laerm;28316;49.504;8.526;2023-03-23T14:41:32;41.90;40.71;43.99;;
42701;Laerm;28316;49.504;8.526;2023-03-23T14:44:02;41.93;40.71;46.10;;
42701;Laerm;28316;49.504;8.526;2023-03-23T14:46:30;41.88;40.62;43.68;;
42701;Laerm;28316;49.504;8.526;2023-03-23T14:49:01;42.00;40.54;47.07;;
42701;Laerm;28316;49.504;8.526;2023-03-23T14:51:27;41.91;40.53;48.34;;
42701;Laerm;28316;49.504;8.526;2023-03-23T14:53:54;41.76;40.43;43.58;;
42701;Laerm;28316;49.504;8.526;2023-03-23T14:56:22;41.73;40.53;47.42;;
42701;Laerm;28316;49.504;8.526;2023-03-23T14:58:51;41.78;39.92;47.57;;
42701;Laerm;28316;49.504;8.526;2023-03-23T15:01:28;42.46;40.13;57.41;;
42701;Laerm;28316;49.504;8.526;2023-03-23T15:04:15;41.89;39.92;54.72;;
42701;Laerm;28316;49.504;8.526;2023-03-23T15:06:54;41.55;39.92;47.72;;
42701;Laerm;28316;49.504;8.526;2023-03-23T15:09:23;41.33;39.92;43.19;;
42701;Laerm;28316;49.504;8.526;2023-03-23T15:11:59;41.73;39.81;53.46;;
42701;Laerm;28316;49.504;8.526;2023-03-23T15:14:49;41.43;40.03;46.25;;
42701;Laerm;28316;49.504;8.526;2023-03-23T15:17:24;41.40;39.81;43.49;;
42701;Laerm;28316;49.504;8.526;2023-03-23T15:19:52;41.49;40.13;49.95;;
42701;Laerm;28316;49.504;8.526;2023-03-23T15:22:27;41.59;40.13;47.00;;
42701;Laerm;28316;49.504;8.526;2023-03-23T15:28:18;41.54;39.92;49.25;;
42701;Laerm;28316;49.504;8.526;2023-03-23T15:31:01;41.45;40.13;45.80;;
42701;Laerm;28316;49.504;8.526;2023-03-23T15:33:35;41.41;39.81;44.80;;
42701;Laerm;28316;49.504;8.526;2023-03-23T15:36:08;41.41;39.81;43.63;;
42701;Laerm;28316;49.504;8.526;2023-03-23T15:38:35;41.50;40.03;45.51;;
42701;Laerm;28316;49.504;8.526;2023-03-23T15:41:05;41.60;40.03;44.54;;
42701;Laerm;28316;49.504;8.526;2023-03-23T15:43:35;41.60;40.23;43.58;;
42701;Laerm;28316;49.504;8.526;2023-03-23T15:46:20;41.56;40.33;42.82;;
42701;Laerm;28316;49.504;8.526;2023-03-23T15:48:50;41.54;39.92;43.44;;
42701;Laerm;28316;49.504;8.526;2023-03-23T15:51:18;41.56;40.13;43.99;;
42701;Laerm;28316;49.504;8.526;2023-03-23T15:53:45;41.54;40.23;42.76;;